createdAt,value
2018-07-28T00:01:00.727Z,21.10
2018-07-28T00:02:32.299Z,20.10
2018-07-28T00:04:03.971Z,21.20
2018-07-28T00:05:35.442Z,20.80
2018-07-28T00:07:07.015Z,21.00
2018-07-28T00:08:38.586Z,20.00
2018-07-28T00:10:10.158Z,21.80
2018-07-28T00:11:41.730Z,22.40
2018-07-28T00:13:13.302Z,24.40
2018-07-28T00:14:44.876Z,23.10
2018-07-28T00:16:16.553Z,22.40
2018-07-28T00:17:48.019Z,22.00
2018-07-28T00:19:19.590Z,22.90
2018-07-28T00:20:51.161Z,21.90
2018-07-28T00:22:22.836Z,23.00
2018-07-28T00:23:54.308Z,21.80
2018-07-28T00:25:25.876Z,22.60
2018-07-28T00:26:57.452Z,23.00
2018-07-28T00:28:29.020Z,26.50
2018-07-28T00:30:00.591Z,22.20
2018-07-28T00:31:32.163Z,23.80
2018-07-28T00:33:03.736Z,22.20
2018-07-28T00:34:35.907Z,22.00
2018-07-28T00:36:06.878Z,23.00
2018-07-28T00:37:38.449Z,22.80
2018-07-28T00:39:10.021Z,22.20
2018-07-28T00:40:41.593Z,22.20
2018-07-28T00:42:13.163Z,21.00
2018-07-28T00:43:44.739Z,23.00
2018-07-28T00:45:16.307Z,21.30
2018-07-28T00:46:47.878Z,22.60
2018-07-28T00:48:19.452Z,23.60
2018-07-28T00:49:51.024Z,25.00
2018-07-28T00:51:22.592Z,24.00
2018-07-28T00:52:54.265Z,23.90
2018-07-28T00:54:25.736Z,25.70
2018-07-28T00:55:57.307Z,25.00
2018-07-28T00:57:28.879Z,26.70
2018-07-28T00:59:00.550Z,26.00
2018-07-28T01:00:32.023Z,24.40
2018-07-28T01:02:03.593Z,26.00
2018-07-28T01:03:35.165Z,32.90
2018-07-28T01:05:06.841Z,23.90
2018-07-28T01:06:38.308Z,28.10
2018-07-28T01:08:09.880Z,25.70
2018-07-28T01:09:41.451Z,25.30
2018-07-28T01:11:13.123Z,26.20
2018-07-28T01:12:44.595Z,23.30
2018-07-28T01:14:16.166Z,25.50
2018-07-28T01:15:48.042Z,24.30
2018-07-28T01:17:19.309Z,24.10
2018-07-28T01:18:50.881Z,22.40
2018-07-28T01:20:22.452Z,25.20
2018-07-28T01:21:54.024Z,24.80
2018-07-28T01:23:25.596Z,28.70
2018-07-28T01:24:57.167Z,23.50
2018-07-28T01:26:28.739Z,24.20
2018-07-28T01:28:00.311Z,24.90
2018-07-28T01:29:31.982Z,26.70
2018-07-28T01:31:03.456Z,26.30
2018-07-28T01:32:35.028Z,26.30
2018-07-28T01:34:06.597Z,24.20
2018-07-28T01:35:38.268Z,28.80
2018-07-28T01:37:09.810Z,26.50
2018-07-28T01:38:41.382Z,27.80
2018-07-28T01:40:12.954Z,28.80
2018-07-28T01:41:44.625Z,26.90
2018-07-28T01:43:16.027Z,26.40
2018-07-28T01:44:47.597Z,28.40
2018-07-28T01:46:19.169Z,27.80
2018-07-28T01:47:50.844Z,31.90
2018-07-28T01:49:22.359Z,27.80
2018-07-28T01:50:53.882Z,28.40
2018-07-28T01:52:25.454Z,29.40
2018-07-28T01:53:57.035Z,29.10
2018-07-28T01:55:28.597Z,29.10
2018-07-28T01:57:00.168Z,28.90
2018-07-28T01:58:31.742Z,26.00
2018-07-28T02:00:03.311Z,35.20
2018-07-28T02:01:34.883Z,28.50
2018-07-28T02:03:06.454Z,28.10
2018-07-28T02:04:38.551Z,30.30
2018-07-28T02:06:09.796Z,30.30
2018-07-28T02:07:41.167Z,30.50
2018-07-28T02:09:12.739Z,29.70
2018-07-28T02:10:44.310Z,28.60
2018-07-28T02:12:15.879Z,29.70
2018-07-28T02:13:47.450Z,30.30
2018-07-28T02:15:19.022Z,31.20
2018-07-28T02:16:50.597Z,30.30
2018-07-28T02:18:22.163Z,26.20
2018-07-28T02:19:53.736Z,27.00
2018-07-28T02:21:25.305Z,27.80
2018-07-28T02:22:56.889Z,30.70
2018-07-28T02:24:28.547Z,27.70
2018-07-28T02:26:00.035Z,25.60
2018-07-28T02:27:31.589Z,27.50
2018-07-28T02:29:03.160Z,28.90
2018-07-28T02:30:34.730Z,28.20
2018-07-28T02:32:06.301Z,26.80
2018-07-28T02:33:37.872Z,27.60
2018-07-28T02:35:09.454Z,24.80
2018-07-28T02:36:41.122Z,27.10
2018-07-28T02:38:12.584Z,28.70
2018-07-28T02:39:44.155Z,28.20
2018-07-28T02:41:15.727Z,26.80
2018-07-28T02:42:47.406Z,26.80
2018-07-28T02:44:18.868Z,28.10
2018-07-28T02:45:50.440Z,26.80
2018-07-28T02:47:22.011Z,28.40
2018-07-28T02:48:53.580Z,28.20
2018-07-28T02:50:25.154Z,25.00
2018-07-28T02:51:56.721Z,25.70
2018-07-28T02:53:28.293Z,24.70
2018-07-28T02:54:59.862Z,25.40
2018-07-28T02:56:31.434Z,24.10
2018-07-28T02:58:03.003Z,26.90
2018-07-28T02:59:34.574Z,30.70
2018-07-28T03:01:06.245Z,25.20
2018-07-28T03:02:37.715Z,23.70
2018-07-28T03:04:09.286Z,28.10
2018-07-28T03:05:40.857Z,27.70
2018-07-28T03:07:12.528Z,26.00
2018-07-28T03:08:43.998Z,25.00
2018-07-28T03:10:15.568Z,25.50
2018-07-28T03:11:47.138Z,24.60
2018-07-28T03:13:18.709Z,25.00
2018-07-28T03:14:50.281Z,24.90
2018-07-28T03:16:21.860Z,25.80
2018-07-28T03:17:53.421Z,26.10
2018-07-28T03:19:25.090Z,24.90
2018-07-28T03:20:56.561Z,25.60
2018-07-28T03:22:28.131Z,26.50
2018-07-28T03:23:59.702Z,27.20
2018-07-28T03:25:31.275Z,26.60
2018-07-28T03:27:02.843Z,26.40
2018-07-28T03:28:34.413Z,28.50
2018-07-28T03:30:05.984Z,29.70
2018-07-28T03:31:37.655Z,28.90
2018-07-28T03:33:09.124Z,30.10
2018-07-28T03:34:40.697Z,29.40
2018-07-28T03:36:12.265Z,28.80
2018-07-28T03:37:44.036Z,31.80
2018-07-28T03:39:15.406Z,32.90
2018-07-28T03:40:46.980Z,30.30
2018-07-28T03:42:18.546Z,33.30
2018-07-28T03:43:50.117Z,32.90
2018-07-28T03:45:21.687Z,28.60
2018-07-28T03:46:53.257Z,32.10
2018-07-28T03:48:24.829Z,30.00
2018-07-28T03:49:56.398Z,29.50
2018-07-28T03:51:27.969Z,30.20
2018-07-28T03:52:59.539Z,32.80
2018-07-28T03:54:31.109Z,35.40
2018-07-28T03:56:02.779Z,32.90
2018-07-28T03:57:34.311Z,34.40
2018-07-28T03:59:05.819Z,37.20
2018-07-28T04:00:37.391Z,43.10
2018-07-28T04:02:08.961Z,44.50
2018-07-28T04:03:40.530Z,39.80
2018-07-28T04:05:12.100Z,43.70
2018-07-28T04:06:43.671Z,39.60
2018-07-28T04:08:15.341Z,33.70
2018-07-28T04:09:46.812Z,41.10
2018-07-28T04:11:18.382Z,39.20
2018-07-28T04:12:49.951Z,41.20
2018-07-28T04:14:21.641Z,41.80
2018-07-28T04:15:53.095Z,46.60
2018-07-28T04:17:25.214Z,44.10
2018-07-28T04:18:56.237Z,50.40
2018-07-28T04:20:27.803Z,45.90
2018-07-28T04:21:59.375Z,42.40
2018-07-28T04:23:30.944Z,45.10
2018-07-28T04:25:02.515Z,49.20
2018-07-28T04:26:34.086Z,40.60
2018-07-28T04:28:05.655Z,41.60
2018-07-28T04:29:37.302Z,46.30
2018-07-28T04:31:08.802Z,39.10
2018-07-28T04:32:40.566Z,46.20
2018-07-28T04:34:11.947Z,48.30
2018-07-28T04:35:43.507Z,50.60
2018-07-28T04:37:15.083Z,47.60
2018-07-28T04:38:46.753Z,47.30
2018-07-28T04:40:18.219Z,48.50
2018-07-28T04:41:49.789Z,48.90
2018-07-28T04:43:21.359Z,45.20
2018-07-28T04:44:52.938Z,46.80
2018-07-28T04:46:24.500Z,45.80
2018-07-28T04:47:56.071Z,54.10
2018-07-28T04:49:27.642Z,51.90
2018-07-28T04:50:59.312Z,48.50
2018-07-28T04:52:30.784Z,48.60
2018-07-28T04:54:02.358Z,47.10
2018-07-28T04:55:33.924Z,47.90
2018-07-28T04:57:05.495Z,51.10
2018-07-28T04:58:37.065Z,48.00
2018-07-28T05:00:08.636Z,50.60
2018-07-28T05:01:40.206Z,49.80
2018-07-28T05:03:11.778Z,51.60
2018-07-28T05:04:43.347Z,49.00
2018-07-28T05:06:14.918Z,46.30
2018-07-28T05:07:46.489Z,46.20
2018-07-28T05:09:18.309Z,49.00
2018-07-28T05:10:49.630Z,43.50
2018-07-28T05:12:21.200Z,43.00
2018-07-28T05:13:52.770Z,43.30
2018-07-28T05:15:24.347Z,45.00
2018-07-28T05:16:55.912Z,40.90
2018-07-28T05:18:27.481Z,36.90
2018-07-28T05:19:59.052Z,39.90
2018-07-28T05:21:30.623Z,40.20
2018-07-28T05:23:02.195Z,37.70
2018-07-28T05:24:33.763Z,41.00
2018-07-28T05:26:05.336Z,40.30
2018-07-28T05:27:37.006Z,40.60
2018-07-28T05:29:08.478Z,44.80
2018-07-28T05:30:40.046Z,35.50
2018-07-28T05:32:11.620Z,36.30
2018-07-28T05:33:43.287Z,35.70
2018-07-28T05:35:14.757Z,38.60
2018-07-28T05:36:46.327Z,33.40
2018-07-28T05:38:17.898Z,33.80
2018-07-28T05:39:49.574Z,33.10
2018-07-28T05:41:21.038Z,35.60
2018-07-28T05:42:52.610Z,31.40
2018-07-28T05:44:24.180Z,30.50
2018-07-28T05:45:55.850Z,30.10
2018-07-28T05:47:27.320Z,37.10
2018-07-28T05:48:58.890Z,30.70
2018-07-28T05:50:30.462Z,31.60
2018-07-28T05:52:02.034Z,35.60
2018-07-28T05:53:33.602Z,34.00
2018-07-28T05:55:05.172Z,32.60
2018-07-28T05:56:36.742Z,30.30
2018-07-28T05:58:08.413Z,29.20
2018-07-28T05:59:39.883Z,32.50
2018-07-28T06:01:11.453Z,30.70
2018-07-28T06:02:43.029Z,27.90
2018-07-28T06:04:14.944Z,28.30
2018-07-28T06:05:46.164Z,30.70
2018-07-28T06:07:17.737Z,26.50
2018-07-28T06:08:49.305Z,31.50
2018-07-28T06:10:20.975Z,30.70
2018-07-28T06:11:52.445Z,30.00
2018-07-28T06:13:24.015Z,29.20
2018-07-28T06:14:55.585Z,26.60
2018-07-28T06:16:27.156Z,28.60
2018-07-28T06:17:58.736Z,26.80
2018-07-28T06:19:30.302Z,27.50
2018-07-28T06:21:01.868Z,27.10
2018-07-28T06:22:33.537Z,30.10
2018-07-28T06:24:05.007Z,31.10
2018-07-28T06:25:36.578Z,29.40
2018-07-28T06:27:08.148Z,27.20
2018-07-28T06:28:39.718Z,27.80
2018-07-28T06:30:11.289Z,27.80
2018-07-28T06:31:42.967Z,28.30
2018-07-28T06:33:14.433Z,26.50
2018-07-28T06:34:46.099Z,28.80
2018-07-28T06:36:17.569Z,27.00
2018-07-28T06:37:49.139Z,29.90
2018-07-28T06:39:20.713Z,26.30
2018-07-28T06:40:52.481Z,25.80
2018-07-28T06:42:23.850Z,25.40
2018-07-28T06:43:55.421Z,26.00
2018-07-28T06:45:26.991Z,27.70
2018-07-28T06:46:58.563Z,23.00
2018-07-28T06:48:30.135Z,29.20
2018-07-28T06:50:01.701Z,25.60
2018-07-28T06:51:33.271Z,28.50
2018-07-28T06:53:04.841Z,31.20
2018-07-28T06:54:36.412Z,27.50
2018-07-28T06:56:07.981Z,27.60
2018-07-28T06:57:39.552Z,25.50
2018-07-28T06:59:11.322Z,29.60
2018-07-28T07:00:42.697Z,26.80
2018-07-28T07:02:14.262Z,30.50
2018-07-28T07:03:45.833Z,32.80
2018-07-28T07:05:17.653Z,28.80
2018-07-28T07:06:48.972Z,27.40
2018-07-28T07:08:20.542Z,27.20
2018-07-28T07:09:52.113Z,30.00
2018-07-28T07:11:23.783Z,28.10
2018-07-28T07:12:55.253Z,28.60
2018-07-28T07:14:26.823Z,28.60
2018-07-28T07:15:58.408Z,26.60
2018-07-28T07:17:30.064Z,26.30
2018-07-28T07:19:01.534Z,30.40
2018-07-28T07:20:33.104Z,30.70
2018-07-28T07:22:04.675Z,30.90
2018-07-28T07:23:36.246Z,32.90
2018-07-28T07:25:07.815Z,36.40
2018-07-28T07:26:39.385Z,32.90
2018-07-28T07:28:10.955Z,30.70
2018-07-28T07:29:42.627Z,34.60
2018-07-28T07:31:14.096Z,30.50
2018-07-28T07:32:45.665Z,35.10
2018-07-28T07:34:17.236Z,32.30
2018-07-28T07:35:49.407Z,30.60
2018-07-28T07:37:20.376Z,31.70
2018-07-28T07:38:51.946Z,29.30
2018-07-28T07:40:23.516Z,26.80
2018-07-28T07:41:55.187Z,27.00
2018-07-28T07:43:26.657Z,29.10
2018-07-28T07:44:58.227Z,30.50
2018-07-28T07:46:29.797Z,26.90
2018-07-28T07:48:01.468Z,27.60
2018-07-28T07:49:32.939Z,27.00
2018-07-28T07:51:04.508Z,26.90
2018-07-28T07:52:36.086Z,27.80
2018-07-28T07:54:07.748Z,29.70
2018-07-28T07:55:39.218Z,24.00
2018-07-28T07:57:10.788Z,29.60
2018-07-28T07:58:42.358Z,29.70
2018-07-28T08:00:14.028Z,29.30
2018-07-28T08:01:45.498Z,29.60
2018-07-28T08:03:17.068Z,29.40
2018-07-28T08:04:48.686Z,29.30
2018-07-28T08:06:20.483Z,28.90
2018-07-28T08:07:51.780Z,27.50
2018-07-28T08:09:23.348Z,28.30
2018-07-28T08:10:54.918Z,30.50
2018-07-28T08:12:26.688Z,27.20
2018-07-28T08:13:58.058Z,27.80
2018-07-28T08:15:29.628Z,29.60
2018-07-28T08:17:01.198Z,28.00
2018-07-28T08:18:32.768Z,29.80
2018-07-28T08:20:04.338Z,30.80
2018-07-28T08:21:35.907Z,31.20
2018-07-28T08:23:07.477Z,30.20
2018-07-28T08:24:39.048Z,33.20
2018-07-28T08:26:10.617Z,35.40
2018-07-28T08:27:42.188Z,33.60
2018-07-28T08:29:13.757Z,37.00
2018-07-28T08:30:45.527Z,35.10
2018-07-28T08:32:16.897Z,35.50
2018-07-28T08:33:48.467Z,34.70
2018-07-28T08:35:20.039Z,35.40
2018-07-28T08:36:51.607Z,35.70
2018-07-28T08:38:23.176Z,33.10
2018-07-28T08:39:54.813Z,34.80
2018-07-28T08:41:26.316Z,35.50
2018-07-28T08:42:57.988Z,33.70
2018-07-28T08:44:29.459Z,35.40
2018-07-28T08:46:01.029Z,34.90
2018-07-28T08:47:32.596Z,34.90
2018-07-28T08:49:04.427Z,33.50
2018-07-28T08:50:35.736Z,31.70
2018-07-28T08:52:07.307Z,31.00
2018-07-28T08:53:38.875Z,31.80
2018-07-28T08:55:10.446Z,29.60
2018-07-28T08:56:42.016Z,31.50
2018-07-28T08:58:13.586Z,31.10
2018-07-28T08:59:45.155Z,28.50
2018-07-28T09:01:16.825Z,28.20
2018-07-28T09:02:48.296Z,27.60
2018-07-28T09:04:19.864Z,28.70
2018-07-28T09:05:51.495Z,27.50
2018-07-28T09:07:23.355Z,27.30
2018-07-28T09:08:54.574Z,26.80
2018-07-28T09:10:26.145Z,29.00
2018-07-28T09:11:57.714Z,26.30
2018-07-28T09:13:29.383Z,25.20
2018-07-28T09:15:00.853Z,24.60
2018-07-28T09:16:32.506Z,24.10
2018-07-28T09:18:04.081Z,25.00
2018-07-28T09:19:35.562Z,26.20
2018-07-28T09:21:07.132Z,24.10
2018-07-28T09:22:38.782Z,21.40
2018-07-28T09:24:10.271Z,20.60
2018-07-28T09:25:41.940Z,20.50
2018-07-28T09:27:13.410Z,19.70
2018-07-28T09:28:44.980Z,19.40
2018-07-28T09:30:16.550Z,22.40
2018-07-28T09:31:48.119Z,20.30
2018-07-28T09:33:19.690Z,20.40
2018-07-28T09:34:51.259Z,20.50
2018-07-28T09:36:22.828Z,17.70
2018-07-28T09:37:54.499Z,20.70
2018-07-28T09:39:25.968Z,19.30
2018-07-28T09:40:57.539Z,20.50
2018-07-28T09:42:29.108Z,21.60
2018-07-28T09:44:00.878Z,21.90
2018-07-28T09:45:32.247Z,19.00
2018-07-28T09:47:03.883Z,21.00
2018-07-28T09:48:35.913Z,21.70
2018-07-28T09:50:06.956Z,21.10
2018-07-28T09:51:38.526Z,22.60
2018-07-28T09:56:13.269Z,20.10
2018-07-28T09:57:44.806Z,21.80
2018-07-28T09:59:16.377Z,20.70
2018-07-28T10:00:48.677Z,22.70
2018-07-28T10:02:20.345Z,19.60
2018-07-28T10:03:51.085Z,18.70
2018-07-28T10:05:22.682Z,21.80
2018-07-28T10:06:54.228Z,21.00
2018-07-28T10:09:57.893Z,19.80
2018-07-28T10:11:28.939Z,18.70
2018-07-28T10:13:00.509Z,23.30
2018-07-28T10:16:03.750Z,18.40
2018-07-28T10:19:06.802Z,22.30
2018-07-28T10:20:38.365Z,23.10
2018-07-28T10:22:10.037Z,19.10
2018-07-28T10:23:42.035Z,22.60
2018-07-28T10:25:13.280Z,23.10
2018-07-28T10:26:44.648Z,20.60
2018-07-28T10:28:16.220Z,22.00
2018-07-28T10:31:19.365Z,22.10
2018-07-28T10:32:50.938Z,20.50
2018-07-28T10:34:22.509Z,20.40
2018-07-28T10:35:54.083Z,21.80
2018-07-28T10:37:25.656Z,21.30
2018-07-28T10:38:57.226Z,19.10
2018-07-28T10:40:28.901Z,20.50
2018-07-28T10:43:32.251Z,22.90
2018-07-28T10:45:03.521Z,22.00
2018-07-28T10:46:35.194Z,21.10
2018-07-28T10:48:07.195Z,23.00
2018-07-28T10:49:38.242Z,20.90
2018-07-28T10:51:10.342Z,21.20
2018-07-28T10:52:41.694Z,20.30
2018-07-28T10:54:12.962Z,22.30
2018-07-28T10:55:44.537Z,20.10
2018-07-28T10:57:16.416Z,19.90
2018-07-28T11:01:50.942Z,18.90
2018-07-28T11:03:22.418Z,19.30
2018-07-28T11:04:53.988Z,20.70
2018-07-28T11:06:25.761Z,20.00
2018-07-28T11:07:57.664Z,20.70
2018-07-28T11:09:28.709Z,21.00
2018-07-28T11:11:00.283Z,21.70
2018-07-28T11:12:31.859Z,20.80
2018-07-28T11:14:03.887Z,19.20
2018-07-28T11:17:06.588Z,18.90
2018-07-28T11:18:38.168Z,19.90
2018-07-28T11:20:10.143Z,20.30
2018-07-28T11:21:41.517Z,16.40
2018-07-28T11:23:12.892Z,17.20
2018-07-28T11:24:44.467Z,17.60
2018-07-28T11:26:16.317Z,16.30
2018-07-28T11:27:47.622Z,20.20
2018-07-28T11:29:19.198Z,23.30
2018-07-28T11:30:50.775Z,16.90
2018-07-28T11:32:22.352Z,18.30
2018-07-28T11:33:53.931Z,19.60
2018-07-28T11:35:25.811Z,16.20
2018-07-28T11:36:57.095Z,17.50
2018-07-28T11:38:28.964Z,21.00
2018-07-28T11:40:00.542Z,17.30
2018-07-28T11:43:03.393Z,15.40
2018-07-28T11:44:35.950Z,18.60
2018-07-28T11:46:06.549Z,15.60
2018-07-28T11:47:38.127Z,15.60
2018-07-28T11:50:41.284Z,14.70
2018-07-28T11:52:12.861Z,14.80
2018-07-28T11:53:44.642Z,14.00
2018-07-28T11:55:16.017Z,18.80
2018-07-28T11:56:47.898Z,19.00
2018-07-28T11:59:51.070Z,17.50
2018-07-28T12:01:22.333Z,16.20
2018-07-28T12:02:53.911Z,15.60
2018-07-28T12:04:26.016Z,14.80
2018-07-28T12:05:57.069Z,14.50
2018-07-28T12:07:29.177Z,17.90
2018-07-28T12:09:00.227Z,15.90
2018-07-28T12:13:34.965Z,13.40
2018-07-28T12:15:07.171Z,13.70
2018-07-28T12:18:09.912Z,13.70
2018-07-28T12:19:41.282Z,15.10
2018-07-28T12:21:13.167Z,13.40
2018-07-28T12:22:44.443Z,12.40
2018-07-28T12:24:16.226Z,13.00
2018-07-28T12:27:19.182Z,14.10
2018-07-28T12:28:50.766Z,12.90
2018-07-28T12:30:22.868Z,11.90
2018-07-28T12:31:53.923Z,13.70
2018-07-28T12:33:25.602Z,12.30
2018-07-28T12:34:57.352Z,12.70
2018-07-28T12:36:28.666Z,12.20
2018-07-28T12:38:00.446Z,10.50
2018-07-28T12:39:32.354Z,13.00
2018-07-28T12:41:03.645Z,9.70
2018-07-28T12:42:34.987Z,10.10
2018-07-28T12:44:06.569Z,11.90
2018-07-28T12:47:09.830Z,11.90
2018-07-28T12:48:41.312Z,12.20
2018-07-28T12:50:12.893Z,10.50
2018-07-28T12:54:47.835Z,10.20
2018-07-28T12:56:19.326Z,12.00
2018-07-28T12:57:50.798Z,10.70
2018-07-28T13:00:53.962Z,12.10
2018-07-28T13:02:25.544Z,12.10
2018-07-28T13:03:57.199Z,10.20
2018-07-28T13:07:00.291Z,11.50
2018-07-28T13:08:32.196Z,10.80
2018-07-28T13:11:35.036Z,10.00
2018-07-28T13:13:06.721Z,10.70
2018-07-28T13:14:38.199Z,11.80
2018-07-28T13:16:09.782Z,10.80
2018-07-28T13:17:41.571Z,11.50
2018-07-28T13:20:44.532Z,10.70
2018-07-28T13:22:16.113Z,13.10
2018-07-28T13:23:48.521Z,11.90
2018-07-28T13:26:50.859Z,13.90
2018-07-28T13:28:22.443Z,10.50
2018-07-28T13:32:57.292Z,11.90
2018-07-28T13:34:28.774Z,11.70
2018-07-28T13:36:00.367Z,12.10
2018-07-28T13:37:31.945Z,13.60
2018-07-28T13:39:04.048Z,12.70
2018-07-28T13:40:35.104Z,12.50
2018-07-28T13:42:06.735Z,13.50
2018-07-28T13:43:38.268Z,12.40
2018-07-28T13:45:10.680Z,12.70
2018-07-28T13:46:41.636Z,10.80
2018-07-28T13:48:13.015Z,11.90
2018-07-28T13:51:16.909Z,12.00
2018-07-28T13:55:50.929Z,12.90
2018-07-28T14:01:57.563Z,11.80
2018-07-28T14:03:28.845Z,11.70
2018-07-28T14:05:00.632Z,11.50
2018-07-28T14:06:32.011Z,12.40
2018-07-28T14:08:04.147Z,12.80
2018-07-28T14:09:35.175Z,12.30
2018-07-28T14:11:07.285Z,13.90
2018-07-28T14:12:38.544Z,13.00
2018-07-28T14:14:09.925Z,13.80
2018-07-28T14:15:42.052Z,13.40
2018-07-28T14:17:13.095Z,13.70
2018-07-28T14:20:16.260Z,13.70
2018-07-28T14:21:47.842Z,15.00
2018-07-28T14:23:19.432Z,12.00
2018-07-28T14:24:51.647Z,13.40
2018-07-28T14:26:22.693Z,13.60
2018-07-28T14:27:54.176Z,15.30
2018-07-28T14:32:29.026Z,13.20
2018-07-28T14:34:00.509Z,13.60
2018-07-28T14:37:03.877Z,12.70
2018-07-28T14:40:06.849Z,14.20
2018-07-28T14:43:10.015Z,13.10
2018-07-28T14:44:41.800Z,12.90
2018-07-28T14:46:13.377Z,11.90
2018-07-28T14:47:44.760Z,11.90
2018-07-28T14:49:16.343Z,13.10
2018-07-28T14:50:48.259Z,12.50
2018-07-28T14:52:19.512Z,13.30
2018-07-28T14:53:51.095Z,12.60
2018-07-28T14:55:22.679Z,14.80
2018-07-28T14:56:54.786Z,13.20
2018-07-28T14:58:26.048Z,11.60
2018-07-28T14:59:57.955Z,10.90
2018-07-28T15:01:29.021Z,12.50
2018-07-28T15:03:00.808Z,10.90
2018-07-28T15:04:32.383Z,11.60
2018-07-28T15:07:35.563Z,11.50
2018-07-28T15:09:06.994Z,11.70
2018-07-28T15:10:38.723Z,10.50
2018-07-28T15:12:10.106Z,10.20
2018-07-28T15:13:41.694Z,10.90
2018-07-28T15:15:13.800Z,10.60
2018-07-28T15:18:16.696Z,9.40
2018-07-28T15:19:48.639Z,10.40
2018-07-28T15:21:19.617Z,9.40
2018-07-28T15:22:51.200Z,8.50
2018-07-28T15:24:23.432Z,9.80
2018-07-28T15:25:54.370Z,9.10
2018-07-28T15:30:29.133Z,8.30
2018-07-28T15:32:00.730Z,7.80
2018-07-28T15:33:32.335Z,7.90
2018-07-28T15:36:35.871Z,8.70
2018-07-28T15:38:07.052Z,8.70
2018-07-28T15:39:38.948Z,9.10
2018-07-28T15:42:41.910Z,9.50
2018-07-28T15:44:13.394Z,9.80
2018-07-28T15:45:46.112Z,8.10
2018-07-28T15:48:48.149Z,8.30
2018-07-28T15:50:19.733Z,8.30
2018-07-28T15:51:51.319Z,7.60
2018-07-28T15:53:22.903Z,7.90
2018-07-28T15:54:54.489Z,7.90
2018-07-28T15:56:26.376Z,8.70
2018-07-28T15:57:57.658Z,8.00
2018-07-28T15:59:29.445Z,8.00
2018-07-28T16:01:00.928Z,7.60
2018-07-28T16:02:32.414Z,7.80
2018-07-28T16:04:03.999Z,7.10
2018-07-28T16:05:36.108Z,7.00
2018-07-28T16:07:07.472Z,6.90
2018-07-28T16:08:38.758Z,5.70
2018-07-28T16:10:10.342Z,5.10
2018-07-28T16:13:13.510Z,5.20
2018-07-28T16:14:45.095Z,4.80
2018-07-28T16:16:16.682Z,5.90
2018-07-28T16:20:51.993Z,6.80
2018-07-28T16:22:23.554Z,5.60
2018-07-28T16:23:54.614Z,6.50
2018-07-28T16:25:26.193Z,7.80
2018-07-28T16:26:57.779Z,6.70
2018-07-28T16:30:00.950Z,6.80
2018-07-28T16:34:35.705Z,6.80
2018-07-28T16:36:07.291Z,7.30
2018-07-28T16:37:38.876Z,6.80
2018-07-28T16:39:10.984Z,7.20
2018-07-28T16:40:42.762Z,7.20
2018-07-28T16:42:14.190Z,6.50
2018-07-28T16:43:45.418Z,6.80
2018-07-28T16:45:16.804Z,6.90
2018-07-28T16:46:48.389Z,6.30
2018-07-28T16:48:20.275Z,6.40
2018-07-28T16:49:51.861Z,6.70
2018-07-28T16:51:23.175Z,8.10
2018-07-28T16:52:55.456Z,6.90
2018-07-28T16:54:26.318Z,6.10
2018-07-28T16:57:29.483Z,8.70
2018-07-28T16:59:01.183Z,10.80
2018-07-28T17:00:32.653Z,6.30
2018-07-28T17:02:04.238Z,7.00
2018-07-28T17:03:36.025Z,7.40
2018-07-28T17:05:07.410Z,6.30
2018-07-28T17:06:38.994Z,6.80
2018-07-28T17:08:11.099Z,7.60
2018-07-28T17:09:42.160Z,7.30
2018-07-28T17:11:13.747Z,6.20
2018-07-28T17:12:45.331Z,6.90
2018-07-28T17:14:16.917Z,7.00
2018-07-28T17:15:48.503Z,7.00
2018-07-28T17:17:20.187Z,6.90
2018-07-28T17:18:52.196Z,7.60
2018-07-28T17:21:54.842Z,7.30
2018-07-28T17:24:58.014Z,7.80
2018-07-28T17:26:29.901Z,8.60
2018-07-28T17:28:01.181Z,8.20
2018-07-28T17:29:33.272Z,9.70
2018-07-28T17:31:04.487Z,8.30
2018-07-28T17:32:36.239Z,8.60
2018-07-28T17:38:42.876Z,9.80
2018-07-28T17:43:17.029Z,10.10
2018-07-28T17:44:48.612Z,10.10
2018-07-28T17:46:20.399Z,9.90
2018-07-28T17:47:51.986Z,9.40
2018-07-28T17:50:54.950Z,8.60
2018-07-28T17:52:26.534Z,9.30
2018-07-28T17:53:59.247Z,10.20
2018-07-28T17:55:29.707Z,11.70
2018-07-28T17:57:01.387Z,10.90
2018-07-28T17:58:33.374Z,9.90
2018-07-28T18:00:04.531Z,10.30
2018-07-28T18:01:36.041Z,9.50
2018-07-28T18:03:07.926Z,9.60
2018-07-28T18:06:10.991Z,10.30
2018-07-28T18:09:13.956Z,9.70
2018-07-28T18:10:45.844Z,9.80
2018-07-28T18:12:17.125Z,8.90
2018-07-28T18:13:48.710Z,10.40
2018-07-28T18:15:20.393Z,8.80
2018-07-28T18:18:23.462Z,8.50
2018-07-28T18:19:55.975Z,10.10
2018-07-28T18:21:26.881Z,10.50
2018-07-28T18:22:58.216Z,9.20
2018-07-28T18:26:01.387Z,9.70
2018-07-28T18:27:32.967Z,10.00
2018-07-28T18:29:04.552Z,10.30
2018-07-28T18:30:36.136Z,11.60
2018-07-28T18:32:07.923Z,9.90
2018-07-28T18:33:39.807Z,9.40
2018-07-28T18:35:10.885Z,10.70
2018-07-28T18:36:42.991Z,10.50
2018-07-28T18:38:14.052Z,10.00
2018-07-28T18:39:45.667Z,9.80
2018-07-28T18:41:17.420Z,10.40
2018-07-28T18:42:48.803Z,9.20
2018-07-28T18:44:20.587Z,8.80
2018-07-28T18:45:51.969Z,8.80
2018-07-28T18:47:23.553Z,8.70
2018-07-28T18:48:55.219Z,8.90
2018-07-28T18:50:26.719Z,9.20
2018-07-28T18:51:58.610Z,8.30
2018-07-28T18:53:29.886Z,8.90
2018-07-28T18:55:01.489Z,8.60
2018-07-28T18:56:33.056Z,9.40
2018-07-28T18:58:04.737Z,10.70
2018-07-28T18:59:36.220Z,11.10
2018-07-28T19:01:07.803Z,9.30
2018-07-28T19:02:39.386Z,9.80
2018-07-28T19:04:11.271Z,9.90
2018-07-28T19:05:42.856Z,9.90
2018-07-28T19:07:14.135Z,10.00
2018-07-28T19:08:45.920Z,10.80
2018-07-28T19:10:17.402Z,11.40
2018-07-28T19:11:49.229Z,10.90
2018-07-28T19:16:23.634Z,10.40
2018-07-28T19:17:55.215Z,10.70
2018-07-28T19:20:58.682Z,10.50
2018-07-28T19:22:30.166Z,10.30
2018-07-28T19:24:01.848Z,11.10
2018-07-28T19:25:33.650Z,10.80
2018-07-28T19:27:04.709Z,11.70
2018-07-28T19:30:07.973Z,11.30
2018-07-28T19:31:39.455Z,11.00
2018-07-28T19:33:11.037Z,11.10
2018-07-28T19:34:42.617Z,10.80
2018-07-28T19:36:14.300Z,10.50
2018-07-28T19:39:17.362Z,10.70
2018-07-28T19:40:48.945Z,11.10
2018-07-28T19:42:20.626Z,10.10
2018-07-28T19:45:23.689Z,14.70
2018-07-28T19:48:26.951Z,10.40
2018-07-28T19:49:58.432Z,11.50
2018-07-28T19:51:30.015Z,12.20
2018-07-28T19:53:01.595Z,13.00
2018-07-28T19:54:33.175Z,11.50
2018-07-28T19:56:04.759Z,11.30
2018-07-28T19:59:07.917Z,11.70
2018-07-28T20:00:39.600Z,11.70
2018-07-28T20:02:11.077Z,10.70
2018-07-28T20:03:42.659Z,11.30
2018-07-28T20:05:14.239Z,11.50
2018-07-28T20:08:17.803Z,10.20
2018-07-28T20:09:48.979Z,10.80
2018-07-28T20:11:20.559Z,12.70
2018-07-28T20:14:23.922Z,13.10
2018-07-28T20:15:55.298Z,11.40
2018-07-28T20:17:26.877Z,12.00
2018-07-28T20:18:58.457Z,11.20
2018-07-28T20:20:30.343Z,11.80
2018-07-28T20:23:33.195Z,13.20
2018-07-28T20:25:04.774Z,11.40
2018-07-28T20:26:36.463Z,12.00
2018-07-28T20:28:07.935Z,16.50
2018-07-28T20:31:11.090Z,12.30
2018-07-28T20:32:42.773Z,14.10
2018-07-28T20:34:14.246Z,14.60
2018-07-28T20:35:46.348Z,14.40
2018-07-28T20:37:17.404Z,19.60
2018-07-28T20:38:49.082Z,22.90
2018-07-28T20:40:20.561Z,16.40
2018-07-28T20:41:52.179Z,17.20
2018-07-28T20:43:23.716Z,15.40
2018-07-28T20:44:55.393Z,13.70
2018-07-28T20:46:26.870Z,18.60
2018-07-28T20:47:58.450Z,20.60
2018-07-28T20:49:30.025Z,14.20
2018-07-28T20:51:01.640Z,13.10
2018-07-28T20:52:33.179Z,18.50
2018-07-28T20:54:04.756Z,15.90
2018-07-28T20:55:36.332Z,18.90
2018-07-28T20:57:07.923Z,15.10
2018-07-28T20:58:39.486Z,15.90
2018-07-28T21:00:11.070Z,23.30
2018-07-28T21:01:42.638Z,25.90
2018-07-28T21:03:14.415Z,16.00
2018-07-28T21:04:45.790Z,18.00
2018-07-28T21:06:17.367Z,16.50
2018-07-28T21:07:48.942Z,18.90
2018-07-28T21:09:20.569Z,19.10
2018-07-28T21:10:52.093Z,14.20
2018-07-28T21:12:23.668Z,16.60
2018-07-28T21:13:55.244Z,16.40
2018-07-28T21:15:26.819Z,15.00
2018-07-28T21:16:58.395Z,14.10
2018-07-28T21:18:29.975Z,23.30
2018-07-28T21:20:01.548Z,17.10
2018-07-28T21:21:33.222Z,18.00
2018-07-28T21:23:04.695Z,14.30
2018-07-28T21:24:36.271Z,14.60
2018-07-28T21:26:07.844Z,18.00
2018-07-28T21:27:39.423Z,16.60
2018-07-28T21:29:11.167Z,15.90
2018-07-28T21:30:42.569Z,24.20
2018-07-28T21:32:14.143Z,26.80
2018-07-28T21:33:45.718Z,20.70
2018-07-28T21:35:17.293Z,18.90
2018-07-28T21:36:48.867Z,19.90
2018-07-28T21:38:20.545Z,23.60
2018-07-28T21:39:52.917Z,19.40
2018-07-28T21:41:23.590Z,22.70
2018-07-28T21:42:55.164Z,21.00